Time;durP1;ratioP1;P1;durP2;ratioP2;P2;SDS_P1;SDS_P2;PMS_P1;PMS_P2;Temp;Humidity;BMP_temperature;BMP_pressure;BME280_temperature;BME280_humidity;BME280_pressure;Samples;Min_cycle;Max_cycle;Signal;HPM_P1;HPM_P2
2023/10/06 00:00:40;;;;;;;4.50;4.10;;;15.30;99.90;;;;;;5089350;28;20196;-80
2023/10/06 00:03:10;;;;;;;4.40;4.00;;;15.00;99.90;;;;;;5081498;28;20191;-78
2023/10/06 00:05:37;;;;;;;4.90;4.40;;;14.20;99.90;;;;;;5076372;28;20235;-77
2023/10/06 00:08:16;;;;;;;4.23;3.90;;;15.00;99.90;;;;;;5077741;28;20176;-79
2023/10/06 00:10:50;;;;;;;5.33;4.00;;;15.00;99.90;;;;;;5076092;28;20170;-79
2023/10/06 00:13:18;;;;;;;4.67;4.27;;;15.00;99.90;;;;;;5078396;28;20252;-79
2023/10/06 00:15:45;;;;;;;4.27;3.90;;;15.00;99.90;;;;;;5075483;28;20175;-80
2023/10/06 00:18:24;;;;;;;4.47;4.10;;;15.10;99.90;;;;;;5076414;28;20176;-78
2023/10/06 00:20:57;;;;;;;5.53;3.80;;;15.10;99.90;;;;;;5074866;28;20518;-78
2023/10/06 00:23:27;;;;;;;4.40;4.00;;;15.20;99.90;;;;;;5073863;28;20201;-77
2023/10/06 00:25:54;;;;;;;4.50;4.10;;;15.20;99.90;;;;;;5074609;28;20203;-78
2023/10/06 00:28:27;;;;;;;4.00;3.70;;;15.20;99.90;;;;;;5075487;28;20171;-77
2023/10/06 00:30:57;;;;;;;5.30;4.10;;;15.10;99.90;;;;;;5075732;28;20179;-77
2023/10/06 00:33:37;;;;;;;4.47;4.07;;;15.00;99.90;;;;;;5075139;28;20186;-78
2023/10/06 00:36:14;;;;;;;4.87;4.23;;;15.00;99.90;;;;;;5074723;28;20157;-78
2023/10/06 00:38:45;;;;;;;3.90;3.60;;;15.00;99.90;;;;;;5074517;28;20214;-77
2023/10/06 00:41:14;;;;;;;4.37;3.87;;;15.20;99.90;;;;;;5074783;28;20243;-76
2023/10/06 00:43:43;;;;;;;4.00;3.60;;;14.90;99.90;;;;;;5074552;28;20262;-77
2023/10/06 00:46:14;;;;;;;4.03;3.70;;;14.90;99.90;;;;;;5077223;28;20211;-77
2023/10/06 00:48:42;;;;;;;4.73;4.33;;;14.90;99.90;;;;;;5074923;28;20717;-79
2023/10/06 00:51:22;;;;;;;4.20;3.90;;;15.10;99.90;;;;;;5074211;28;20525;-78
2023/10/06 00:53:52;;;;;;;4.30;3.90;;;14.90;99.90;;;;;;5074545;28;20159;-76
2023/10/06 00:56:23;;;;;;;4.37;3.97;;;14.90;99.90;;;;;;5074500;28;20161;-76
2023/10/06 00:58:49;;;;;;;4.23;3.80;;;14.90;99.90;;;;;;5073540;28;20535;-76
2023/10/06 01:01:17;;;;;;;4.30;4.00;;;14.90;99.90;;;;;;5075000;28;20183;-76
2023/10/06 01:03:49;;;;;;;4.67;4.17;;;14.80;99.90;;;;;;5073984;28;20167;-78
2023/10/06 01:06:23;;;;;;;4.33;3.93;;;14.80;99.90;;;;;;5073747;28;20664;-78
2023/10/06 01:09:05;;;;;;;4.37;3.97;;;15.30;99.90;;;;;;5076095;28;20165;-78
2023/10/06 01:11:44;;;;;;;5.13;3.73;;;14.70;99.90;;;;;;5076529;28;20195;-78
2023/10/06 01:14:10;;;;;;;4.23;3.70;;;14.70;99.90;;;;;;5075190;28;20190;-78
2023/10/06 01:16:36;;;;;;;4.37;4.00;;;14.70;99.90;;;;;;5087495;28;20255;-79
2023/10/06 01:21:48;;;;;;;4.67;3.60;;;14.70;99.90;;;;;;5084708;28;20253;-77
2023/10/06 01:24:26;;;;;;;3.80;3.50;;;14.90;99.90;;;;;;5073786;28;20591;-79
2023/10/06 01:27:07;;;;;;;4.67;4.17;;;14.80;99.90;;;;;;5073899;28;20656;-78
2023/10/06 01:29:34;;;;;;;4.10;3.70;;;14.70;99.90;;;;;;5074131;28;20639;-78
2023/10/06 01:32:05;;;;;;;3.70;3.40;;;14.80;99.90;;;;;;5073923;28;20654;-77
2023/10/06 01:34:38;;;;;;;4.40;4.00;;;14.60;99.90;;;;;;5073891;28;20166;-77
2023/10/06 01:37:09;;;;;;;4.13;3.73;;;14.90;99.90;;;;;;5073575;28;20170;-77
2023/10/06 01:39:54;;;;;;;4.00;3.57;;;14.90;99.90;;;;;;5073662;28;20171;-78
2023/10/06 01:42:24;;;;;;;4.10;3.80;;;14.90;99.90;;;;;;5073924;28;20589;-78
2023/10/06 01:44:50;;;;;;;4.07;3.67;;;15.30;99.90;;;;;;5073342;28;20229;-79
2023/10/06 01:47:18;;;;;;;4.10;3.80;;;14.90;99.90;;;;;;5073258;28;20654;-78
2023/10/06 01:49:44;;;;;;;4.27;3.97;;;14.90;99.90;;;;;;5073610;28;20538;-78
2023/10/06 01:52:13;;;;;;;3.90;3.60;;;14.90;99.90;;;;;;5073661;28;20174;-78
2023/10/06 01:54:39;;;;;;;3.73;3.43;;;14.90;99.90;;;;;;5073560;28;20692;-76
2023/10/06 01:57:10;;;;;;;7.37;3.63;;;14.90;99.90;;;;;;5074535;28;20167;-80
2023/10/06 01:59:36;;;;;;;3.47;3.20;;;15.00;99.90;;;;;;5073498;28;20198;-76
2023/10/06 02:02:02;;;;;;;4.00;3.70;;;14.90;99.90;;;;;;5073374;28;20584;-77
2023/10/06 02:04:39;;;;;;;4.00;3.63;;;14.90;99.90;;;;;;5074697;28;20174;-79
2023/10/06 02:07:09;;;;;;;3.70;3.37;;;15.00;99.90;;;;;;5071874;28;20179;-77
2023/10/06 02:09:36;;;;;;;3.53;3.23;;;15.00;99.90;;;;;;5073149;28;20202;-77
2023/10/06 02:12:03;;;;;;;4.20;3.90;;;15.00;99.90;;;;;;5072809;28;20171;-78
2023/10/06 02:14:29;;;;;;;4.13;3.70;;;14.90;99.90;;;;;;5074560;28;20173;-79
2023/10/06 02:16:55;;;;;;;4.40;4.00;;;14.90;99.90;;;;;;5073842;28;20167;-79
2023/10/06 02:19:28;;;;;;;4.13;3.73;;;14.90;99.90;;;;;;5072535;28;20225;-78
2023/10/06 02:21:54;;;;;;;4.10;3.80;;;16.00;99.90;;;;;;5071890;28;20663;-79
2023/10/06 02:24:20;;;;;;;4.30;3.20;;;15.00;99.90;;;;;;5072930;28;20208;-77
2023/10/06 02:27:05;;;;;;;3.67;3.37;;;14.90;99.90;;;;;;5074055;28;20202;-79
2023/10/06 02:29:34;;;;;;;3.60;3.30;;;14.90;99.90;;;;;;5073191;28;20506;-80
2023/10/06 02:32:06;;;;;;;3.53;3.30;;;14.40;99.90;;;;;;5072256;28;20185;-79
2023/10/06 02:34:35;;;;;;;4.97;3.50;;;14.80;99.90;;;;;;5072777;28;20254;-79
2023/10/06 02:37:06;;;;;;;3.93;3.63;;;14.80;99.90;;;;;;5073217;28;20163;-76
2023/10/06 02:39:38;;;;;;;3.73;3.47;;;14.80;99.90;;;;;;5073869;28;20179;-78
2023/10/06 02:42:13;;;;;;;3.77;3.40;;;14.80;99.90;;;;;;5072504;28;20242;-80
2023/10/06 02:44:40;;;;;;;4.87;3.53;;;14.80;99.90;;;;;;5072758;28;20170;-77
2023/10/06 02:47:09;;;;;;;3.97;3.67;;;14.80;99.90;;;;;;5073424;28;20207;-78
2023/10/06 02:49:37;;;;;;;3.60;3.30;;;14.80;99.90;;;;;;5075755;28;20266;-76
2023/10/06 02:55:55;;;;;;;3.37;3.17;;;14.80;99.90;;;;;;5077611;28;20168;-78
2023/10/06 02:57:50;;;;;;;3.67;3.33;;;14.70;99.90;;;;;;5081552;28;20198;-79
2023/10/06 03:03:34;;;;;;;4.47;3.77;;;14.70;99.90;;;;;;5085062;28;20170;-78
2023/10/06 03:05:39;;;;;;;3.70;3.40;;;15.10;99.90;;;;;;5077992;28;20219;-79
2023/10/06 03:08:08;;;;;;;3.70;3.40;;;14.70;99.90;;;;;;5081640;28;20262;-78
2023/10/06 03:10:44;;;;;;;3.80;3.60;;;14.70;99.90;;;;;;5079027;28;20175;-77
2023/10/06 03:13:13;;;;;;;4.67;3.67;;;14.60;99.90;;;;;;5077260;28;20159;-78
2023/10/06 03:15:45;;;;;;;4.13;3.50;;;14.60;99.90;;;;;;5075439;28;20182;-79
2023/10/06 03:18:15;;;;;;;3.77;3.40;;;14.60;99.90;;;;;;5075733;28;20205;-79
2023/10/06 03:20:48;;;;;;;5.07;4.63;;;14.60;99.90;;;;;;5076476;28;20518;-79
2023/10/06 03:23:32;;;;;;;8.47;4.00;;;14.60;99.90;;;;;;5075894;28;20208;-78
2023/10/06 03:25:58;;;;;;;4.73;3.43;;;14.60;99.90;;;;;;5076108;28;20206;-77
2023/10/06 03:28:36;;;;;;;4.80;3.53;;;14.60;99.90;;;;;;5077204;28;20174;-78
2023/10/06 03:33:50;;;;;;;4.77;3.70;;;14.50;99.90;;;;;;5075874;28;20174;-77
2023/10/06 03:36:16;;;;;;;3.77;3.47;;;14.50;99.90;;;;;;5074971;28;20190;-80
2023/10/06 03:38:55;;;;;;;3.80;3.50;;;14.40;99.90;;;;;;5089315;28;20175;-78
2023/10/06 03:41:32;;;;;;;4.00;3.53;;;14.40;99.90;;;;;;5075812;28;20167;-76
2023/10/06 03:44:03;;;;;;;4.00;3.70;;;14.30;99.90;;;;;;5075878;28;20194;-77
2023/10/06 03:46:36;;;;;;;3.73;3.47;;;14.20;99.90;;;;;;5074626;28;20577;-78
2023/10/06 03:49:03;;;;;;;3.83;3.53;;;14.20;99.90;;;;;;5075303;28;20162;-75
2023/10/06 03:51:29;;;;;;;4.17;3.80;;;14.20;99.90;;;;;;5074132;28;20183;-78
2023/10/06 03:53:56;;;;;;;4.33;3.37;;;14.20;99.90;;;;;;5074923;28;20174;-76
2023/10/06 03:56:22;;;;;;;3.53;3.23;;;14.20;99.90;;;;;;5075005;28;20542;-76
2023/10/06 03:58:48;;;;;;;3.70;3.40;;;14.20;99.90;;;;;;5074556;28;20168;-78
2023/10/06 04:01:26;;;;;;;4.00;3.70;;;14.00;99.90;;;;;;5075278;28;20171;-77
2023/10/06 04:03:53;;;;;;;5.40;3.80;;;14.20;99.90;;;;;;5074981;28;20556;-77
2023/10/06 04:06:23;;;;;;;5.73;3.47;;;14.20;99.90;;;;;;5074549;28;20674;-78
2023/10/06 04:08:49;;;;;;;3.57;3.27;;;14.20;99.90;;;;;;5074012;28;20175;-78
2023/10/06 04:11:15;;;;;;;4.77;3.30;;;14.30;99.90;;;;;;5086648;28;20182;-79
2023/10/06 04:13:41;;;;;;;3.43;3.23;;;14.10;99.90;;;;;;5087004;28;20519;-78
2023/10/06 04:16:07;;;;;;;4.00;3.70;;;14.10;99.90;;;;;;5075253;28;20198;-78
2023/10/06 04:18:33;;;;;;;4.07;3.67;;;14.10;99.90;;;;;;5079574;28;20615;-78
2023/10/06 04:20:59;;;;;;;3.50;3.20;;;14.10;99.90;;;;;;5075956;28;20904;-78
2023/10/06 04:23:25;;;;;;;4.50;3.90;;;14.00;99.90;;;;;;5075609;28;20668;-78
2023/10/06 04:25:56;;;;;;;3.77;3.50;;;14.00;99.90;;;;;;5075234;28;20203;-78
2023/10/06 04:28:24;;;;;;;4.50;3.37;;;14.00;99.90;;;;;;5084404;28;20163;-77
2023/10/06 04:30:50;;;;;;;4.07;3.67;;;13.80;99.90;;;;;;5080137;28;20569;-78
2023/10/06 04:33:21;;;;;;;4.23;3.83;;;13.80;99.90;;;;;;5074246;28;20191;-77
2023/10/06 04:35:54;;;;;;;3.80;3.50;;;13.80;99.90;;;;;;5074262;28;20159;-78
2023/10/06 04:38:23;;;;;;;4.20;3.90;;;13.70;99.90;;;;;;5074999;28;20159;-80
2023/10/06 04:40:49;;;;;;;4.07;3.67;;;13.80;99.90;;;;;;5079673;28;20492;-80
2023/10/06 04:43:18;;;;;;;4.60;3.60;;;14.20;99.90;;;;;;5093205;28;20167;-79
2023/10/06 04:45:45;;;;;;;5.53;3.50;;;13.70;99.90;;;;;;5078950;28;20207;-78
2023/10/06 04:48:12;;;;;;;3.30;3.10;;;13.70;99.90;;;;;;5074077;28;20175;-77
2023/10/06 04:50:38;;;;;;;3.73;3.43;;;13.70;99.90;;;;;;5073159;28;20529;-77
2023/10/06 04:53:07;;;;;;;6.60;3.50;;;13.60;99.90;;;;;;5073659;28;20171;-79
2023/10/06 04:55:37;;;;;;;3.53;3.30;;;13.50;99.90;;;;;;5074102;28;20179;-78
2023/10/06 04:58:14;;;;;;;4.83;3.73;;;13.60;99.90;;;;;;5075275;28;20163;-78
2023/10/06 05:00:49;;;;;;;3.70;3.40;;;13.40;99.90;;;;;;5073710;28;20714;-76
2023/10/06 05:03:15;;;;;;;3.70;3.37;;;13.40;99.90;;;;;;5072365;28;20512;-80
2023/10/06 05:05:42;;;;;;;3.57;3.37;;;13.40;99.90;;;;;;5074253;28;20226;-78
2023/10/06 05:08:14;;;;;;;3.40;3.10;;;13.40;99.90;;;;;;5077230;28;20178;-78
2023/10/06 05:10:40;;;;;;;3.37;3.17;;;13.40;99.90;;;;;;5075604;28;20163;-79
2023/10/06 05:13:07;;;;;;;3.37;3.13;;;13.30;99.90;;;;;;5076607;28;20228;-78
2023/10/06 05:15:34;;;;;;;4.20;3.80;;;13.30;99.90;;;;;;5073978;28;20211;-78
2023/10/06 05:18:04;;;;;;;4.30;3.60;;;13.20;99.90;;;;;;5073845;28;20187;-79
2023/10/06 05:20:35;;;;;;;5.13;3.73;;;13.20;99.90;;;;;;5073988;28;20167;-78
2023/10/06 05:23:07;;;;;;;5.03;4.13;;;13.20;99.90;;;;;;5073668;28;20171;-78
2023/10/06 05:25:44;;;;;;;3.70;3.40;;;13.20;99.90;;;;;;5073756;28;20195;-77
2023/10/06 05:28:10;;;;;;;3.77;3.47;;;13.10;99.90;;;;;;5074846;28;20504;-80
2023/10/06 05:30:37;;;;;;;3.70;3.40;;;13.20;99.90;;;;;;5075182;28;20191;-78
2023/10/06 05:33:04;;;;;;;3.70;3.40;;;13.20;99.90;;;;;;5073118;28;20269;-77
2023/10/06 05:35:38;;;;;;;5.90;3.30;;;13.20;99.90;;;;;;5072871;28;20554;-78
2023/10/06 05:38:14;;;;;;;4.10;3.63;;;13.20;99.90;;;;;;5075671;28;20167;-78
2023/10/06 05:40:44;;;;;;;4.10;3.70;;;13.20;99.90;;;;;;5076333;28;20163;-77
2023/10/06 05:43:15;;;;;;;4.63;3.90;;;13.20;99.90;;;;;;5080695;28;20243;-78
2023/10/06 05:45:42;;;;;;;5.73;4.27;;;13.20;99.90;;;;;;5073484;28;20202;-77
2023/10/06 05:48:12;;;;;;;8.43;4.30;;;13.20;99.90;;;;;;5073061;28;20170;-78
2023/10/06 05:50:40;;;;;;;4.30;3.90;;;13.20;99.90;;;;;;5074867;28;20253;-77
2023/10/06 05:53:17;;;;;;;5.00;3.47;;;13.20;99.90;;;;;;5073892;28;20263;-77
2023/10/06 05:55:42;;;;;;;3.87;3.50;;;13.10;99.90;;;;;;5074012;28;20520;-79
2023/10/06 05:58:09;;;;;;;5.33;4.07;;;13.10;99.90;;;;;;5073132;28;20178;-80
2023/10/06 06:00:46;;;;;;;3.37;3.17;;;13.10;99.90;;;;;;5073399;28;20217;-78
2023/10/06 06:03:13;;;;;;;7.90;4.30;;;13.10;99.90;;;;;;5073109;28;20151;-78
2023/10/06 06:05:40;;;;;;;4.53;4.07;;;13.20;99.90;;;;;;5074996;28;20231;-77
2023/10/06 06:08:09;;;;;;;4.90;4.00;;;13.20;99.90;;;;;;5073420;28;20248;-78
2023/10/06 06:10:36;;;;;;;5.43;4.30;;;13.30;99.90;;;;;;5072703;28;20274;-79
2023/10/06 06:13:02;;;;;;;4.07;3.77;;;13.30;99.90;;;;;;5087278;28;20249;-78
2023/10/06 06:15:29;;;;;;;5.73;4.17;;;13.40;99.90;;;;;;5083295;28;20167;-78
2023/10/06 06:17:58;;;;;;;6.57;4.00;;;13.40;99.90;;;;;;5074008;28;20163;-80
2023/10/06 06:20:24;;;;;;;6.60;4.50;;;13.40;99.90;;;;;;5073971;28;20181;-77
2023/10/06 06:22:53;;;;;;;4.27;3.87;;;13.30;99.90;;;;;;5077305;28;20499;-78
2023/10/06 06:25:21;;;;;;;6.23;4.10;;;13.40;99.90;;;;;;5092955;28;20229;-77
2023/10/06 06:27:47;;;;;;;7.63;4.30;;;13.40;99.90;;;;;;5086564;28;20546;-79
2023/10/06 06:30:18;;;;;;;7.20;4.33;;;13.50;99.90;;;;;;5080840;28;20171;-78
2023/10/06 06:32:46;;;;;;;4.67;4.27;;;13.60;99.90;;;;;;5076854;28;20175;-78
2023/10/06 06:35:13;;;;;;;5.80;4.37;;;13.70;99.90;;;;;;5076530;28;20179;-79
2023/10/06 06:37:42;;;;;;;8.03;4.20;;;13.80;99.90;;;;;;5075656;28;20266;-77
2023/10/06 06:40:13;;;;;;;4.43;3.90;;;13.90;99.90;;;;;;5081143;28;20277;-77
2023/10/06 06:42:40;;;;;;;5.20;4.67;;;13.90;99.90;;;;;;5081551;28;20562;-79
2023/10/06 06:45:06;;;;;;;16.93;9.13;;;14.00;99.90;;;;;;5082168;28;20167;-76
2023/10/06 06:47:32;;;;;;;6.57;4.37;;;14.00;99.90;;;;;;5080786;28;20183;-78
2023/10/06 06:50:00;;;;;;;6.40;4.13;;;14.00;99.90;;;;;;5076766;28;20241;-77
2023/10/06 06:52:27;;;;;;;6.93;4.33;;;14.10;99.90;;;;;;5076826;28;20178;-78
2023/10/06 06:54:53;;;;;;;5.27;4.57;;;14.10;99.90;;;;;;5077023;28;20171;-78
2023/10/06 06:57:19;;;;;;;5.47;4.93;;;14.10;99.90;;;;;;5076726;28;20179;-77
2023/10/06 06:59:45;;;;;;;8.47;4.07;;;14.20;99.90;;;;;;5078222;28;20174;-78
2023/10/06 07:02:11;;;;;;;5.93;4.50;;;14.20;99.90;;;;;;5083184;28;20246;-76
2023/10/06 07:04:38;;;;;;;4.90;4.40;;;14.30;99.90;;;;;;5079223;28;20215;-77
2023/10/06 07:07:04;;;;;;;6.43;4.10;;;14.40;99.90;;;;;;5076742;28;20223;-77
2023/10/06 07:09:30;;;;;;;8.47;4.60;;;14.40;99.90;;;;;;5077824;28;20175;-76
2023/10/06 07:11:55;;;;;;;4.80;4.40;;;14.50;99.90;;;;;;5074889;28;20182;-77
2023/10/06 07:14:21;;;;;;;4.43;3.83;;;14.50;99.90;;;;;;5076419;28;20201;-77
2023/10/06 07:16:47;;;;;;;4.60;4.00;;;14.50;99.90;;;;;;5074609;28;20599;-78
2023/10/06 07:19:14;;;;;;;5.17;4.40;;;14.50;99.90;;;;;;5075726;28;20170;-77
2023/10/06 07:21:43;;;;;;;6.80;4.70;;;14.50;99.90;;;;;;5075700;28;20240;-77
2023/10/06 07:24:13;;;;;;;5.50;4.53;;;14.40;99.90;;;;;;5076231;28;20287;-77
2023/10/06 07:26:43;;;;;;;4.90;4.27;;;14.50;99.90;;;;;;5074944;28;20203;-78
2023/10/06 07:29:09;;;;;;;7.40;4.70;;;15.10;99.90;;;;;;5075184;28;20698;-77
2023/10/06 07:31:36;;;;;;;4.97;3.63;;;14.60;99.90;;;;;;5073968;28;20183;-78
2023/10/06 07:34:05;;;;;;;4.17;3.57;;;14.60;99.90;;;;;;5074627;28;20503;-77
2023/10/06 07:36:35;;;;;;;4.13;3.70;;;14.80;99.90;;;;;;5075405;28;20178;-78
2023/10/06 07:39:04;;;;;;;4.10;3.57;;;14.70;99.90;;;;;;5075835;28;20634;-78
2023/10/06 07:41:32;;;;;;;4.17;3.47;;;14.70;99.90;;;;;;5082020;28;20156;-79
2023/10/06 07:43:58;;;;;;;5.10;4.00;;;14.80;99.90;;;;;;5075827;28;20172;-77
2023/10/06 07:46:24;;;;;;;4.20;3.80;;;14.90;99.90;;;;;;5075344;28;20234;-79
2023/10/06 07:48:50;;;;;;;4.70;3.77;;;14.90;99.90;;;;;;5081608;28;20706;-79
2023/10/06 07:51:16;;;;;;;4.60;3.50;;;14.80;99.90;;;;;;5075324;28;20178;-77
2023/10/06 07:53:45;;;;;;;5.27;3.40;;;14.90;99.90;;;;;;5075232;28;20171;-77
2023/10/06 07:56:11;;;;;;;5.70;3.80;;;15.00;99.90;;;;;;5075207;28;20178;-77
2023/10/06 07:58:38;;;;;;;5.00;3.90;;;15.00;99.90;;;;;;5075011;28;20178;-77
2023/10/06 08:01:13;;;;;;;4.93;4.00;;;15.10;99.90;;;;;;5075368;28;20187;-77
2023/10/06 08:03:41;;;;;;;5.87;3.77;;;15.00;99.90;;;;;;5075420;28;20619;-77
2023/10/06 08:06:13;;;;;;;5.33;3.80;;;15.00;99.90;;;;;;5076200;28;20216;-79
2023/10/06 08:08:39;;;;;;;3.97;3.57;;;15.00;99.90;;;;;;5089873;28;20195;-78
2023/10/06 08:11:06;;;;;;;4.87;3.53;;;15.10;99.90;;;;;;5079590;28;20170;-77
2023/10/06 08:13:35;;;;;;;5.47;3.87;;;15.20;99.90;;;;;;5077270;28;20173;-77
2023/10/06 08:16:02;;;;;;;6.67;3.83;;;15.20;99.90;;;;;;5092150;28;20249;-77
2023/10/06 08:18:29;;;;;;;5.60;3.27;;;15.20;99.90;;;;;;5087826;28;20168;-77
2023/10/06 08:21:01;;;;;;;4.90;3.53;;;15.20;99.90;;;;;;5075768;28;20657;-77
2023/10/06 08:23:29;;;;;;;7.67;4.00;;;15.60;99.90;;;;;;5074872;28;20167;-77
2023/10/06 08:25:56;;;;;;;4.97;3.27;;;15.40;99.90;;;;;;5074271;28;20300;-77
2023/10/06 08:28:26;;;;;;;5.03;3.43;;;15.40;99.90;;;;;;5074932;28;20170;-78
2023/10/06 08:30:52;;;;;;;5.83;3.57;;;15.50;99.90;;;;;;5074688;28;20171;-76
2023/10/06 08:33:18;;;;;;;4.33;3.70;;;15.50;99.90;;;;;;5074466;28;20173;-76
2023/10/06 08:35:44;;;;;;;5.77;3.30;;;15.40;99.90;;;;;;5079352;28;20182;-76
2023/10/06 08:38:10;;;;;;;6.43;3.70;;;15.40;99.90;;;;;;5079284;28;20181;-79
2023/10/06 08:40:41;;;;;;;4.60;3.30;;;15.40;99.90;;;;;;5073956;28;20182;-76
2023/10/06 08:43:07;;;;;;;5.73;3.40;;;15.50;99.90;;;;;;5074230;28;20225;-76
2023/10/06 08:45:40;;;;;;;5.33;3.30;;;15.60;99.90;;;;;;5073589;28;20199;-78
2023/10/06 08:48:11;;;;;;;4.40;3.10;;;15.60;99.90;;;;;;5074745;28;20258;-76
2023/10/06 08:50:39;;;;;;;3.70;3.33;;;15.70;99.90;;;;;;5074564;28;20246;-78
2023/10/06 08:53:05;;;;;;;4.73;3.70;;;15.70;99.90;;;;;;5077972;28;20171;-77
2023/10/06 08:55:32;;;;;;;6.03;3.63;;;15.60;99.90;;;;;;5075760;28;20183;-79
2023/10/06 08:57:58;;;;;;;4.67;3.43;;;15.60;99.90;;;;;;5073705;28;20210;-76
2023/10/06 09:00:25;;;;;;;5.03;3.70;;;15.70;99.90;;;;;;5073814;28;20179;-77
2023/10/06 09:02:53;;;;;;;5.93;3.70;;;15.80;99.90;;;;;;5077498;28;20181;-76
2023/10/06 09:05:19;;;;;;;4.47;3.73;;;15.80;99.90;;;;;;5077777;28;20230;-76
2023/10/06 09:08:07;;;;;;;6.17;3.67;;;16.00;99.90;;;;;;5075441;28;20251;-77
2023/10/06 09:10:38;;;;;;;5.67;3.73;;;16.00;99.90;;;;;;5074439;28;20167;-76
2023/10/06 09:13:06;;;;;;;3.40;3.10;;;15.80;99.90;;;;;;5056352;28;20178;-78
2023/10/06 09:15:35;;;;;;;5.80;3.60;;;16.00;99.90;;;;;;5073593;28;20185;-77
2023/10/06 09:18:18;;;;;;;5.87;4.20;;;16.10;99.90;;;;;;5080770;28;20195;-78
2023/10/06 09:20:45;;;;;;;5.43;3.83;;;16.00;99.90;;;;;;5073091;28;20265;-78
2023/10/06 09:23:11;;;;;;;5.83;3.63;;;16.10;99.90;;;;;;5073288;28;20167;-75
2023/10/06 09:25:47;;;;;;;6.67;3.60;;;16.00;99.90;;;;;;5073321;28;20225;-76
2023/10/06 09:28:14;;;;;;;5.10;3.33;;;16.10;99.90;;;;;;5073522;28;20168;-77
2023/10/06 09:30:51;;;;;;;9.17;3.93;;;16.20;99.90;;;;;;5073530;28;20542;-76
2023/10/06 09:33:17;;;;;;;6.47;4.10;;;16.30;99.90;;;;;;5073386;28;20168;-77
2023/10/06 09:35:45;;;;;;;7.00;4.57;;;16.20;99.90;;;;;;5071711;28;20666;-77
2023/10/06 09:38:16;;;;;;;4.80;4.30;;;16.20;99.90;;;;;;5054774;28;20198;-77
2023/10/06 09:58:37;;;;;;;6.03;3.90;;;17.10;99.90;;;;;;4991470;28;20235;-76
2023/10/06 10:08:52;;;;;;;4.47;3.10;;;16.50;99.90;;;;;;4900495;29;20326;-78
2023/10/06 10:11:39;;;;;;;6.60;3.10;;;16.50;99.90;;;;;;4887047;29;20701;-77
2023/10/06 10:41:20;;;;;;;5.43;3.70;;;17.20;99.90;;;;;;5010417;28;20215;-77
2023/10/06 10:44:38;;;;;;;5.87;4.00;;;17.30;99.90;;;;;;4979574;28;20189;-76
2023/10/06 10:47:06;;;;;;;4.40;3.40;;;17.40;99.90;;;;;;5012527;28;20554;-77
2023/10/06 10:49:32;;;;;;;5.20;3.80;;;17.40;99.90;;;;;;5010473;28;20653;-75
2023/10/06 10:52:09;;;;;;;4.67;3.50;;;17.40;99.90;;;;;;5010419;28;20255;-77
2023/10/06 10:54:40;;;;;;;5.30;3.20;;;17.40;99.90;;;;;;5012649;28;20278;-76
2023/10/06 10:57:13;;;;;;;5.13;3.60;;;17.40;99.90;;;;;;5032045;28;20172;-77
2023/10/06 11:00:05;;;;;;;4.03;3.40;;;17.40;99.90;;;;;;5016046;28;20162;-76
2023/10/06 11:02:49;;;;;;;4.93;3.23;;;17.50;99.90;;;;;;5012066;28;20644;-75
2023/10/06 11:05:20;;;;;;;5.97;3.43;;;17.50;99.90;;;;;;5012553;28;20213;-76
2023/10/06 11:08:00;;;;;;;3.33;3.03;;;17.50;99.90;;;;;;5022404;28;20394;-76
2023/10/06 11:10:26;;;;;;;6.93;3.23;;;17.80;99.90;;;;;;5015327;28;20234;-76
2023/10/06 11:13:12;;;;;;;4.53;3.40;;;17.60;99.90;;;;;;5013887;28;20599;-77
2023/10/06 11:15:39;;;;;;;8.40;3.57;;;17.60;99.90;;;;;;5013752;28;20196;-75
2023/10/06 11:18:06;;;;;;;3.77;3.47;;;17.70;99.90;;;;;;5013711;28;20351;-77
2023/10/06 11:20:39;;;;;;;3.57;3.27;;;17.60;99.90;;;;;;5026799;28;20232;-76
2023/10/06 11:23:06;;;;;;;3.97;3.63;;;17.70;99.90;;;;;;5075818;28;20193;-75
2023/10/06 11:25:35;;;;;;;5.57;3.67;;;17.60;99.90;;;;;;5075627;28;20576;-76
2023/10/06 11:28:07;;;;;;;7.30;3.80;;;17.60;99.90;;;;;;5057789;28;20179;-77
2023/10/06 11:30:34;;;;;;;3.90;3.27;;;17.70;99.90;;;;;;5075669;28;20642;-77
2023/10/06 11:33:02;;;;;;;7.73;5.17;;;17.70;99.90;;;;;;5076947;28;20163;-76
2023/10/06 11:35:29;;;;;;;5.67;3.77;;;17.70;99.90;;;;;;5088612;28;20186;-78
2023/10/06 11:37:55;;;;;;;5.97;3.90;;;17.60;99.90;;;;;;5090335;28;20163;-77
2023/10/06 11:40:24;;;;;;;3.33;3.00;;;17.50;99.90;;;;;;5085172;28;20182;-77
2023/10/06 11:42:50;;;;;;;3.63;3.30;;;17.50;99.90;;;;;;5075323;28;20475;-77
2023/10/06 11:45:24;;;;;;;6.07;4.30;;;17.60;99.90;;;;;;5076677;28;20171;-77
2023/10/06 11:47:51;;;;;;;4.30;3.70;;;17.70;99.90;;;;;;5075202;28;20171;-76
2023/10/06 11:50:22;;;;;;;5.77;4.27;;;17.70;99.90;;;;;;5075010;28;20614;-76
2023/10/06 11:52:49;;;;;;;9.67;4.60;;;17.80;99.90;;;;;;5074965;28;20167;-76
2023/10/06 11:55:31;;;;;;;4.63;3.80;;;17.70;99.90;;;;;;5074668;28;20171;-76
2023/10/06 11:58:00;;;;;;;7.33;3.70;;;17.80;99.90;;;;;;5074586;28;20321;-76
2023/10/06 12:00:41;;;;;;;4.60;3.33;;;17.80;99.90;;;;;;5074426;28;20175;-76
2023/10/06 12:03:10;;;;;;;5.10;3.70;;;17.80;99.90;;;;;;5074617;28;20627;-76
2023/10/06 12:05:36;;;;;;;3.57;3.13;;;17.90;99.90;;;;;;5074804;28;20539;-76
2023/10/06 12:08:08;;;;;;;3.20;3.00;;;18.00;99.90;;;;;;5082719;28;20271;-78
2023/10/06 12:10:50;;;;;;;3.87;3.17;;;18.00;99.90;;;;;;5095122;28;20555;-77
2023/10/06 12:13:16;;;;;;;3.70;3.40;;;18.00;99.90;;;;;;5095832;28;20239;-77
2023/10/06 12:15:44;;;;;;;4.47;3.37;;;18.00;99.90;;;;;;5095379;28;20175;-76
2023/10/06 12:18:11;;;;;;;4.70;3.50;;;17.90;99.90;;;;;;5094987;28;20185;-77
2023/10/06 12:20:37;;;;;;;3.13;2.83;;;17.80;99.90;;;;;;5099156;28;20778;-78
2023/10/06 12:23:03;;;;;;;5.27;3.20;;;17.90;99.90;;;;;;5101597;28;20178;-75
2023/10/06 12:25:29;;;;;;;4.57;3.40;;;18.00;99.90;;;;;;5110022;28;20251;-76
2023/10/06 12:27:56;;;;;;;4.13;3.50;;;18.00;99.90;;;;;;5107053;28;20158;-76
2023/10/06 12:30:24;;;;;;;4.87;3.20;;;18.10;99.90;;;;;;5107180;28;20178;-79
2023/10/06 12:32:50;;;;;;;3.20;2.77;;;18.10;99.90;;;;;;5102289;28;20166;-75
2023/10/06 12:35:18;;;;;;;3.60;2.90;;;18.20;99.90;;;;;;5100670;28;20246;-77
2023/10/06 12:37:46;;;;;;;4.53;3.27;;;18.20;99.90;;;;;;5094449;28;20178;-76
2023/10/06 12:40:14;;;;;;;4.20;3.03;;;18.20;99.90;;;;;;5076532;28;20281;-76
2023/10/06 12:42:42;;;;;;;3.43;2.97;;;18.20;99.90;;;;;;5094658;28;20169;-76
2023/10/06 12:45:13;;;;;;;3.30;2.97;;;18.20;99.90;;;;;;5096825;28;20163;-77
2023/10/06 12:47:39;;;;;;;5.63;3.17;;;18.20;99.90;;;;;;5081132;28;20206;-77
2023/10/06 12:50:08;;;;;;;6.03;3.40;;;18.20;99.90;;;;;;5095691;28;20523;-79
2023/10/06 12:52:37;;;;;;;4.20;3.00;;;18.20;99.90;;;;;;5101250;28;20170;-77
2023/10/06 12:55:10;;;;;;;3.27;2.97;;;18.30;99.90;;;;;;5097108;28;20271;-77
2023/10/06 12:57:38;;;;;;;6.03;3.83;;;18.40;99.90;;;;;;5094762;28;20173;-77
2023/10/06 13:00:05;;;;;;;5.17;3.20;;;18.40;99.90;;;;;;5094274;28;20175;-76
2023/10/06 13:02:32;;;;;;;3.37;3.00;;;18.40;99.90;;;;;;5094167;28;20174;-76
2023/10/06 13:05:07;;;;;;;7.50;3.17;;;18.40;99.90;;;;;;5095354;28;20664;-77
2023/10/06 13:07:33;;;;;;;6.80;3.47;;;18.40;99.90;;;;;;5090627;28;20217;-77
2023/10/06 13:10:02;;;;;;;4.77;3.27;;;18.40;99.90;;;;;;5094284;28;20247;-76
2023/10/06 13:12:28;;;;;;;5.07;3.40;;;18.50;99.90;;;;;;5085927;28;20221;-76
2023/10/06 13:14:54;;;;;;;4.67;3.23;;;18.40;99.90;;;;;;5076089;28;20534;-76
2023/10/06 13:17:21;;;;;;;7.50;4.47;;;18.40;99.90;;;;;;5096230;28;20167;-77
2023/10/06 13:19:47;;;;;;;3.87;3.10;;;18.40;99.90;;;;;;5112101;28;20778;-75
2023/10/06 13:22:12;;;;;;;3.90;3.60;;;18.40;99.90;;;;;;5099369;28;20166;-75
2023/10/06 13:24:38;;;;;;;4.53;3.47;;;18.40;99.90;;;;;;5095879;28;20250;-76
2023/10/06 13:27:08;;;;;;;3.83;3.40;;;18.80;99.90;;;;;;5093788;28;20247;-76
2023/10/06 13:29:37;;;;;;;4.43;3.60;;;18.40;99.90;;;;;;5093411;28;20645;-76
2023/10/06 13:32:07;;;;;;;3.60;3.30;;;18.40;99.90;;;;;;5092476;28;20181;-77
2023/10/06 13:34:33;;;;;;;7.80;3.07;;;18.40;99.90;;;;;;5093456;28;20209;-76
2023/10/06 13:36:58;;;;;;;4.53;3.07;;;18.40;99.90;;;;;;5094064;28;20177;-77
2023/10/06 13:39:25;;;;;;;3.30;3.00;;;18.60;99.90;;;;;;5093237;28;20569;-76
2023/10/06 13:41:51;;;;;;;3.13;2.67;;;18.40;99.90;;;;;;5077677;28;20178;-77
2023/10/06 13:44:18;;;;;;;3.13;2.90;;;18.50;99.90;;;;;;5115909;28;20225;-77
2023/10/06 13:46:44;;;;;;;5.17;3.67;;;18.50;99.90;;;;;;5101062;28;20210;-75
2023/10/06 13:49:11;;;;;;;4.47;3.17;;;18.60;99.90;;;;;;5094232;28;20171;-79
2023/10/06 13:51:36;;;;;;;3.47;2.70;;;18.50;99.90;;;;;;5104808;28;20259;-78
2023/10/06 13:54:03;;;;;;;3.67;2.70;;;18.50;99.90;;;;;;5097829;28;20609;-77
2023/10/06 13:56:31;;;;;;;3.67;3.30;;;18.60;99.90;;;;;;5093034;28;20514;-77
2023/10/06 13:58:58;;;;;;;4.23;3.00;;;18.50;99.90;;;;;;5093457;28;20193;-75
2023/10/06 14:01:25;;;;;;;5.77;2.77;;;18.50;99.90;;;;;;5094550;28;20250;-75
2023/10/06 14:03:52;;;;;;;6.90;4.50;;;18.50;99.90;;;;;;5101678;28;20238;-78